createdAt,value
2022-09-25T00:01:56.347Z,87.79
2022-09-25T00:04:24.785Z,87.61
2022-09-25T00:06:53.127Z,87.33
2022-09-25T00:09:23.476Z,87.13
2022-09-25T00:11:51.821Z,87.35
2022-09-25T00:14:20.145Z,87.58
2022-09-25T00:16:49.022Z,87.42
2022-09-25T00:19:39.675Z,87.44
2022-09-25T00:22:08.045Z,87.70
2022-09-25T00:24:36.432Z,88.07
2022-09-25T00:27:06.024Z,88.18
2022-09-25T00:29:34.397Z,88.09
2022-09-25T00:32:03.163Z,88.32
2022-09-25T00:34:32.902Z,88.21
2022-09-25T00:37:01.263Z,88.28
2022-09-25T00:39:29.975Z,88.32
2022-09-25T00:41:58.542Z,88.17
2022-09-25T00:44:56.795Z,87.97
2022-09-25T00:47:31.877Z,87.63
2022-09-25T00:50:03.534Z,87.64
2022-09-25T00:52:33.297Z,87.75
2022-09-25T00:55:07.095Z,87.50
2022-09-25T00:57:39.950Z,87.67
2022-09-25T01:00:11.577Z,88.04
2022-09-25T01:02:43.456Z,88.28
2022-09-25T01:05:15.936Z,87.94
2022-09-25T01:07:48.125Z,87.82
2022-09-25T01:10:17.393Z,87.49
2022-09-25T01:12:48.523Z,87.64
2022-09-25T01:15:19.632Z,87.43
2022-09-25T01:18:01.708Z,87.84
2022-09-25T01:20:51.452Z,87.79
2022-09-25T01:23:32.490Z,87.36
2022-09-25T01:26:15.726Z,87.32
2022-09-25T01:28:58.725Z,87.24
2022-09-25T01:31:36.124Z,87.35
2022-09-25T01:34:20.416Z,87.37
2022-09-25T01:36:53.195Z,87.41
2022-09-25T01:39:24.053Z,87.37
2022-09-25T01:41:59.387Z,87.30
2022-09-25T01:44:32.434Z,87.19
2022-09-25T01:47:07.408Z,87.57
2022-09-25T01:49:41.431Z,87.67
2022-09-25T01:52:16.232Z,87.72
2022-09-25T01:54:47.191Z,87.34
2022-09-25T01:57:19.750Z,87.30
2022-09-25T01:59:55.279Z,87.02
2022-09-25T02:02:29.317Z,86.96
2022-09-25T02:05:01.136Z,87.27
2022-09-25T02:07:35.866Z,86.92
2022-09-25T02:10:09.507Z,87.04
2022-09-25T02:12:45.100Z,87.19
2022-09-25T02:15:18.085Z,87.28
2022-09-25T02:18:10.554Z,87.66
2022-09-25T02:20:42.376Z,87.47
2022-09-25T02:23:18.517Z,87.47
2022-09-25T02:25:54.267Z,87.26
2022-09-25T02:28:23.578Z,86.96
2022-09-25T02:30:55.797Z,87.15
2022-09-25T02:33:25.140Z,87.09
2022-09-25T02:35:53.862Z,87.27
2022-09-25T02:38:22.681Z,87.39
2022-09-25T02:40:56.314Z,87.01
2022-09-25T02:43:39.546Z,87.24
2022-09-25T02:46:14.966Z,87.14
2022-09-25T02:48:52.968Z,87.45
2022-09-25T02:51:30.113Z,87.41
2022-09-25T02:54:09.378Z,87.62
2022-09-25T02:56:43.499Z,87.70
2022-09-25T02:59:17.481Z,88.14
2022-09-25T03:01:48.427Z,88.11
2022-09-25T03:04:19.223Z,88.00
2022-09-25T03:06:48.436Z,87.87
2022-09-25T03:09:18.602Z,87.96
2022-09-25T03:11:46.952Z,88.21
2022-09-25T03:14:15.320Z,88.10
2022-09-25T03:16:48.760Z,87.95
2022-09-25T03:19:19.721Z,88.01
2022-09-25T03:21:48.844Z,87.99
2022-09-25T03:24:17.708Z,88.16
2022-09-25T03:26:46.749Z,88.19
2022-09-25T03:29:17.411Z,87.83
2022-09-25T03:31:47.190Z,87.61
2022-09-25T03:34:18.993Z,87.65
2022-09-25T03:36:47.697Z,87.53
2022-09-25T03:39:18.258Z,87.87
2022-09-25T03:41:47.832Z,88.11
2022-09-25T03:44:16.471Z,88.10
2022-09-25T03:46:44.807Z,88.07
2022-09-25T03:49:14.617Z,87.93
2022-09-25T03:51:43.144Z,88.28
2022-09-25T03:54:11.525Z,88.06
2022-09-25T03:56:39.984Z,88.23
2022-09-25T03:59:08.500Z,87.98
2022-09-25T04:01:37.131Z,87.90
2022-09-25T04:04:05.555Z,88.23
2022-09-25T04:06:35.242Z,88.39
2022-09-25T04:09:03.615Z,88.39
2022-09-25T04:11:31.983Z,88.55
2022-09-25T04:14:00.363Z,88.53
2022-09-25T04:16:29.515Z,88.36
2022-09-25T04:18:58.080Z,87.98
2022-09-25T04:21:26.410Z,87.87
2022-09-25T04:24:13.888Z,87.76
2022-09-25T04:26:42.752Z,87.75
2022-09-25T04:29:11.058Z,87.32
2022-09-25T04:31:39.528Z,87.45
2022-09-25T04:34:06.957Z,87.68
2022-09-25T04:36:35.329Z,87.55
2022-09-25T04:39:05.139Z,87.62
2022-09-25T04:41:33.476Z,87.74
2022-09-25T04:44:05.395Z,88.21
2022-09-25T04:46:33.783Z,88.59
2022-09-25T04:49:02.103Z,88.76
2022-09-25T04:51:30.456Z,88.98
2022-09-25T04:53:59.889Z,88.81
2022-09-25T04:56:29.605Z,88.84
2022-09-25T04:59:00.309Z,88.63
2022-09-25T05:01:29.107Z,88.85
2022-09-25T05:03:57.556Z,88.87
2022-09-25T05:06:26.984Z,89.06
2022-09-25T05:08:57.255Z,88.81
2022-09-25T05:11:25.647Z,88.45
2022-09-25T05:13:55.335Z,88.24
2022-09-25T05:16:23.845Z,87.85
2022-09-25T05:18:53.131Z,88.00
2022-09-25T05:21:21.500Z,87.71
2022-09-25T05:23:50.531Z,87.94
2022-09-25T05:26:18.924Z,87.70
2022-09-25T05:28:50.364Z,87.70
2022-09-25T05:31:20.155Z,87.70
2022-09-25T05:33:49.042Z,87.68
2022-09-25T05:36:17.916Z,87.49
2022-09-25T05:38:46.210Z,87.75
2022-09-25T05:41:14.991Z,88.17
2022-09-25T05:43:46.733Z,88.37
2022-09-25T05:46:16.317Z,88.37
2022-09-25T05:48:46.057Z,88.79
2022-09-25T05:51:14.689Z,88.61
2022-09-25T05:53:43.188Z,88.56
2022-09-25T05:56:11.988Z,88.19
2022-09-25T05:58:40.362Z,88.01
2022-09-25T06:01:08.695Z,88.22
2022-09-25T06:03:36.980Z,88.03
2022-09-25T06:06:07.344Z,88.16
2022-09-25T06:08:36.087Z,88.04
2022-09-25T06:11:05.824Z,88.41
2022-09-25T06:13:35.202Z,88.82
2022-09-25T06:16:05.396Z,88.91
2022-09-25T06:18:34.295Z,88.92
2022-09-25T06:21:05.165Z,89.04
2022-09-25T06:23:34.866Z,89.04
2022-09-25T06:26:04.317Z,88.86
2022-09-25T06:28:33.211Z,88.54
2022-09-25T06:31:02.632Z,88.76
2022-09-25T06:33:31.582Z,88.59
2022-09-25T06:36:00.644Z,88.58
2022-09-25T06:38:29.571Z,88.67
2022-09-25T06:41:02.522Z,88.96
2022-09-25T06:43:31.375Z,89.06
2022-09-25T06:46:03.795Z,89.05
2022-09-25T06:48:32.847Z,88.95
2022-09-25T06:51:02.697Z,89.17
2022-09-25T06:53:31.489Z,89.17
2022-09-25T06:56:03.832Z,89.22
2022-09-25T06:58:32.158Z,89.05
2022-09-25T07:01:07.672Z,88.86
2022-09-25T07:03:46.164Z,89.03
2022-09-25T07:06:16.665Z,89.00
2022-09-25T07:08:45.772Z,89.02
2022-09-25T07:11:17.768Z,89.03
2022-09-25T07:13:46.210Z,89.70
2022-09-25T07:16:16.639Z,89.65
2022-09-25T07:18:46.082Z,89.55
2022-09-25T07:21:16.721Z,89.52
2022-09-25T07:23:45.497Z,89.48
2022-09-25T07:26:17.005Z,89.52
2022-09-25T07:28:45.678Z,89.61
2022-09-25T07:31:16.825Z,89.24
2022-09-25T07:33:45.255Z,89.62
2022-09-25T07:36:15.062Z,89.24
2022-09-25T07:38:43.977Z,89.30
2022-09-25T07:41:16.297Z,89.43
2022-09-25T07:43:44.622Z,89.28
2022-09-25T07:46:13.545Z,89.36
2022-09-25T07:48:42.058Z,89.30
2022-09-25T07:51:13.365Z,89.26
2022-09-25T07:53:42.684Z,88.95
2022-09-25T07:56:12.095Z,88.72
2022-09-25T07:58:42.696Z,88.27
2022-09-25T08:01:13.242Z,88.26
2022-09-25T08:03:41.690Z,88.11
2022-09-25T08:06:13.197Z,88.14
2022-09-25T08:08:42.941Z,88.13
2022-09-25T08:11:12.703Z,88.05
2022-09-25T08:13:43.222Z,88.40
2022-09-25T08:16:13.977Z,88.76
2022-09-25T08:18:43.979Z,88.72
2022-09-25T08:21:14.261Z,88.88
2022-09-25T08:23:47.781Z,88.83
2022-09-25T08:26:16.642Z,88.99
2022-09-25T08:28:46.408Z,88.94
2022-09-25T08:31:15.531Z,88.55
2022-09-25T08:33:47.183Z,88.77
2022-09-25T08:36:16.312Z,88.67
2022-09-25T08:38:45.206Z,88.79
2022-09-25T08:41:17.878Z,88.96
2022-09-25T08:44:01.003Z,88.64
2022-09-25T08:46:56.857Z,88.44
2022-09-25T08:49:29.294Z,88.41
2022-09-25T08:52:02.785Z,88.23
2022-09-25T08:54:33.148Z,88.67
2022-09-25T08:57:07.854Z,88.55
2022-09-25T08:59:42.581Z,88.55
2022-09-25T09:02:14.853Z,88.37
2022-09-25T09:04:46.829Z,88.10
2022-09-25T09:07:27.670Z,87.95
2022-09-25T09:10:03.553Z,87.62
2022-09-25T09:12:39.454Z,87.68
2022-09-25T09:15:19.803Z,87.39
2022-09-25T09:17:48.128Z,87.30
2022-09-25T09:20:19.273Z,87.20
2022-09-25T09:22:52.825Z,87.10
2022-09-25T09:25:29.246Z,86.85
2022-09-25T09:28:22.131Z,86.29
2022-09-25T09:31:01.082Z,86.52
2022-09-25T09:33:43.329Z,86.52
2022-09-25T09:36:20.842Z,86.06
2022-09-25T09:39:00.094Z,86.21
2022-09-25T09:41:54.902Z,86.00
2022-09-25T09:44:39.344Z,86.27
2022-09-25T09:47:29.150Z,86.36
2022-09-25T09:50:02.304Z,86.64
2022-09-25T09:52:37.184Z,86.58
2022-09-25T09:55:22.025Z,86.68
2022-09-25T09:57:53.402Z,86.39
2022-09-25T10:00:23.935Z,86.37
2022-09-25T10:02:59.386Z,86.61
2022-09-25T10:05:31.623Z,86.40
2022-09-25T10:08:00.254Z,86.42
2022-09-25T10:10:37.407Z,86.42
2022-09-25T10:13:13.319Z,86.32
2022-09-25T10:15:48.333Z,85.99
2022-09-25T10:18:20.275Z,86.24
2022-09-25T10:20:53.760Z,86.08
2022-09-25T10:23:39.723Z,85.49
2022-09-25T10:26:26.850Z,85.23
2022-09-25T10:28:57.522Z,85.06
2022-09-25T10:31:29.476Z,84.63
2022-09-25T10:34:05.353Z,84.38
2022-09-25T10:36:39.046Z,84.32
2022-09-25T10:39:46.051Z,83.99
2022-09-25T10:42:39.186Z,83.94
2022-09-25T10:45:27.539Z,83.91
2022-09-25T10:48:13.361Z,83.68
2022-09-25T10:50:43.454Z,83.65
2022-09-25T10:53:29.006Z,83.37
2022-09-25T10:56:04.948Z,83.40
2022-09-25T10:58:38.078Z,83.35
2022-09-25T11:01:13.707Z,83.39
2022-09-25T11:03:49.722Z,83.30
2022-09-25T11:06:23.579Z,83.19
2022-09-25T11:09:09.217Z,83.10
2022-09-25T11:11:39.322Z,83.35
2022-09-25T11:14:21.634Z,83.12
2022-09-25T11:16:52.964Z,82.59
2022-09-25T11:19:28.964Z,82.18
2022-09-25T11:22:08.031Z,82.08
2022-09-25T11:24:47.185Z,81.86
2022-09-25T11:27:20.947Z,81.54
2022-09-25T11:29:58.586Z,81.30
2022-09-25T11:32:33.656Z,81.06
2022-09-25T11:35:21.090Z,80.60
2022-09-25T11:38:02.608Z,80.12
2022-09-25T11:40:58.449Z,79.86
2022-09-25T11:43:43.616Z,79.71
2022-09-25T11:46:22.242Z,79.85
2022-09-25T11:49:01.887Z,79.59
2022-09-25T11:52:03.588Z,79.29
2022-09-25T11:54:42.725Z,79.57
2022-09-25T11:57:15.806Z,79.39
2022-09-25T11:59:55.675Z,78.81
2022-09-25T12:02:32.600Z,78.51
2022-09-25T12:05:19.510Z,77.87
2022-09-25T12:08:08.250Z,77.74
2022-09-25T12:10:53.393Z,77.59
2022-09-25T12:13:33.489Z,77.78
2022-09-25T12:16:13.668Z,77.42
2022-09-25T12:18:57.223Z,77.47
2022-09-25T12:21:34.010Z,77.75
2022-09-25T12:24:11.010Z,77.65
2022-09-25T12:26:47.562Z,77.38
2022-09-25T12:29:30.146Z,77.00
2022-09-25T12:32:05.885Z,76.82
2022-09-25T12:34:50.968Z,76.23
2022-09-25T12:37:29.116Z,76.42
2022-09-25T12:40:03.067Z,76.26
2022-09-25T12:42:41.208Z,75.83
2022-09-25T12:45:17.545Z,76.09
2022-09-25T12:47:59.310Z,75.96
2022-09-25T12:50:31.714Z,76.06
2022-09-25T12:53:06.881Z,75.82
2022-09-25T12:55:43.219Z,75.93
2022-09-25T12:58:21.363Z,75.54
2022-09-25T13:01:00.278Z,75.42
2022-09-25T13:03:39.960Z,75.20
2022-09-25T13:06:12.791Z,75.46
2022-09-25T13:08:48.887Z,75.40
2022-09-25T13:11:23.680Z,75.30
2022-09-25T13:13:56.273Z,75.28
2022-09-25T13:16:25.614Z,75.14
2022-09-25T13:19:12.673Z,74.96
2022-09-25T13:21:43.393Z,75.36
2022-09-25T13:24:15.700Z,75.42
2022-09-25T13:26:47.247Z,75.42
2022-09-25T13:29:27.957Z,75.32
2022-09-25T13:32:04.734Z,75.41
2022-09-25T13:34:38.734Z,75.87
2022-09-25T13:37:08.790Z,76.13
2022-09-25T13:39:58.818Z,76.48
2022-09-25T13:42:32.028Z,76.91
2022-09-25T13:45:26.936Z,77.72
2022-09-25T13:48:07.540Z,78.63
2022-09-25T13:50:39.040Z,79.67
2022-09-25T13:53:26.621Z,80.37
2022-09-25T13:56:15.260Z,80.93
2022-09-25T13:59:19.660Z,81.23
2022-09-25T14:02:27.189Z,81.39
2022-09-25T14:04:57.012Z,80.83
2022-09-25T14:07:28.828Z,80.42
2022-09-25T14:10:00.129Z,80.16
2022-09-25T14:12:38.400Z,80.52
2022-09-25T14:15:13.326Z,80.82
2022-09-25T14:17:44.641Z,81.46
2022-09-25T14:20:39.465Z,81.62
2022-09-25T14:23:14.325Z,81.60
2022-09-25T14:25:44.744Z,82.30
2022-09-25T14:28:22.348Z,82.42
2022-09-25T14:31:08.428Z,82.73
2022-09-25T14:33:54.758Z,82.65
2022-09-25T14:36:35.196Z,82.86
2022-09-25T14:39:18.578Z,82.92
2022-09-25T14:42:00.254Z,83.31
2022-09-25T14:45:04.003Z,83.77
2022-09-25T14:47:36.559Z,83.56
2022-09-25T14:50:06.637Z,83.37
2022-09-25T14:52:37.788Z,83.13
2022-09-25T14:55:08.171Z,83.54
2022-09-25T14:57:39.777Z,83.91
2022-09-25T15:00:16.596Z,83.66
2022-09-25T15:02:48.056Z,83.91
2022-09-25T15:05:30.749Z,84.00
2022-09-25T15:08:02.617Z,83.79
2022-09-25T15:10:34.637Z,83.55
2022-09-25T15:13:16.861Z,83.85
2022-09-25T15:16:02.463Z,83.54
2022-09-25T15:18:31.902Z,83.86
2022-09-25T15:21:02.343Z,83.99
2022-09-25T15:23:35.057Z,83.67
2022-09-25T15:26:03.742Z,83.62
2022-09-25T15:28:40.150Z,84.25
2022-09-25T15:31:09.025Z,83.93
2022-09-25T15:33:39.480Z,83.87
2022-09-25T15:36:17.085Z,83.54
2022-09-25T15:38:53.647Z,83.16
2022-09-25T15:41:23.821Z,83.28
2022-09-25T15:43:52.624Z,83.12
2022-09-25T15:46:35.473Z,83.08
2022-09-25T15:49:05.216Z,83.04
2022-09-25T15:51:35.727Z,82.93
2022-09-25T15:54:25.832Z,83.36
2022-09-25T15:56:57.082Z,83.49
2022-09-25T15:59:29.214Z,83.40
2022-09-25T16:02:15.391Z,83.50
2022-09-25T16:04:50.755Z,84.13
2022-09-25T16:07:24.425Z,84.06
2022-09-25T16:09:55.996Z,84.33
2022-09-25T16:12:29.723Z,84.55
2022-09-25T16:14:59.554Z,84.56
2022-09-25T16:17:34.038Z,84.50
2022-09-25T16:20:06.182Z,84.80
2022-09-25T16:22:41.861Z,84.99
2022-09-25T16:25:24.703Z,85.33
2022-09-25T16:27:54.870Z,85.09
2022-09-25T16:30:24.812Z,85.61
2022-09-25T16:32:56.349Z,85.63
2022-09-25T16:35:44.995Z,85.77
2022-09-25T16:38:28.259Z,85.53
2022-09-25T16:41:05.872Z,85.63
2022-09-25T16:43:36.116Z,85.90
2022-09-25T16:46:13.979Z,86.26
2022-09-25T16:48:42.830Z,86.42
2022-09-25T16:51:14.159Z,86.59
2022-09-25T16:53:42.774Z,86.84
2022-09-25T16:56:21.597Z,86.68
2022-09-25T16:58:50.977Z,86.73
2022-09-25T17:01:20.711Z,86.54
2022-09-25T17:03:52.581Z,86.57
2022-09-25T17:06:22.720Z,86.50
2022-09-25T17:08:51.644Z,86.21
2022-09-25T17:11:22.924Z,86.54
2022-09-25T17:13:51.937Z,86.69
2022-09-25T17:16:20.321Z,86.90
2022-09-25T17:18:48.905Z,86.77
2022-09-25T17:21:19.028Z,86.76
2022-09-25T17:23:47.492Z,86.87
2022-09-25T17:26:19.217Z,86.79
2022-09-25T17:28:49.490Z,86.92
2022-09-25T17:31:21.034Z,86.91
2022-09-25T17:33:50.988Z,87.19
2022-09-25T17:36:19.368Z,86.96
2022-09-25T17:38:48.036Z,86.87
2022-09-25T17:41:20.762Z,86.82
2022-09-25T17:43:50.561Z,86.71
2022-09-25T17:46:20.302Z,86.52
2022-09-25T17:48:53.860Z,86.75
2022-09-25T17:51:24.853Z,86.66
2022-09-25T17:53:53.982Z,86.53
2022-09-25T17:56:24.815Z,86.46
2022-09-25T17:58:57.393Z,86.52
2022-09-25T18:01:28.224Z,86.84
2022-09-25T18:03:58.427Z,86.53
2022-09-25T18:06:28.776Z,86.68
2022-09-25T18:08:57.609Z,86.76
2022-09-25T18:11:27.018Z,86.82
2022-09-25T18:14:01.081Z,86.68
2022-09-25T18:16:30.949Z,86.60
2022-09-25T18:19:16.784Z,86.75
2022-09-25T18:22:02.750Z,86.53
2022-09-25T18:24:31.089Z,86.69
2022-09-25T18:27:00.524Z,86.89
2022-09-25T18:29:30.313Z,86.81
2022-09-25T18:31:59.458Z,86.71
2022-09-25T18:34:29.715Z,86.81
2022-09-25T18:36:58.109Z,86.75
2022-09-25T18:39:26.646Z,86.47
2022-09-25T18:41:55.004Z,86.71
2022-09-25T18:44:23.732Z,86.90
2022-09-25T18:46:54.678Z,86.74
2022-09-25T18:49:23.992Z,86.90
2022-09-25T18:51:52.371Z,86.95
2022-09-25T18:54:21.120Z,86.75
2022-09-25T18:56:49.452Z,86.92
2022-09-25T18:59:17.883Z,86.97
2022-09-25T19:01:46.313Z,87.24
2022-09-25T19:04:17.751Z,87.52
2022-09-25T19:06:46.113Z,87.40
2022-09-25T19:09:17.156Z,87.63
2022-09-25T19:11:46.061Z,87.34
2022-09-25T19:14:16.497Z,87.68
2022-09-25T19:16:46.196Z,87.85
2022-09-25T19:19:15.914Z,87.68
2022-09-25T19:21:44.914Z,87.79
2022-09-25T19:24:13.684Z,87.58
2022-09-25T19:26:42.787Z,87.54
2022-09-25T19:29:11.348Z,87.52
2022-09-25T19:31:39.831Z,87.63
2022-09-25T19:34:08.311Z,87.46
2022-09-25T19:36:38.619Z,87.52
2022-09-25T19:39:06.994Z,87.60
2022-09-25T19:41:38.021Z,87.49
2022-09-25T19:44:13.420Z,87.51
2022-09-25T19:46:43.369Z,87.47
2022-09-25T19:49:12.678Z,87.68
2022-09-25T19:51:43.293Z,87.81
2022-09-25T19:54:14.327Z,87.88
2022-09-25T19:56:43.141Z,88.33
2022-09-25T19:59:14.872Z,88.09
2022-09-25T20:01:44.251Z,88.09
2022-09-25T20:04:18.427Z,88.19
2022-09-25T20:06:48.891Z,88.12
2022-09-25T20:09:17.421Z,88.06
2022-09-25T20:11:46.314Z,87.96
2022-09-25T20:14:14.678Z,88.16
2022-09-25T20:16:43.133Z,88.03
2022-09-25T20:19:11.616Z,88.18
2022-09-25T20:21:41.461Z,88.37
2022-09-25T20:24:11.541Z,88.04
2022-09-25T20:26:40.624Z,88.12
2022-09-25T20:29:12.135Z,88.14
2022-09-25T20:31:42.996Z,88.14
2022-09-25T20:34:13.794Z,88.18
2022-09-25T20:36:42.428Z,88.00
2022-09-25T20:39:16.841Z,87.84
2022-09-25T20:41:48.474Z,88.24
2022-09-25T20:44:17.205Z,88.18
2022-09-25T20:46:45.585Z,88.06
2022-09-25T20:49:14.691Z,88.21
2022-09-25T20:51:43.044Z,88.23
2022-09-25T20:54:12.883Z,88.37
2022-09-25T20:56:43.822Z,88.28
2022-09-25T20:59:14.649Z,88.33
2022-09-25T21:01:43.073Z,88.57
2022-09-25T21:04:11.904Z,88.54
2022-09-25T21:06:42.472Z,88.56
2022-09-25T21:09:19.153Z,88.34
2022-09-25T21:11:47.737Z,88.20
2022-09-25T21:14:20.399Z,88.17
2022-09-25T21:16:49.736Z,88.34
2022-09-25T21:19:19.823Z,88.24
2022-09-25T21:21:48.920Z,88.58
2022-09-25T21:24:20.357Z,88.38
2022-09-25T21:26:49.472Z,88.33
2022-09-25T21:29:18.777Z,88.23
2022-09-25T21:31:50.321Z,88.10
2022-09-25T21:34:19.701Z,88.00
2022-09-25T21:36:48.512Z,87.94
2022-09-25T21:39:20.813Z,87.93
2022-09-25T21:41:49.856Z,88.45
2022-09-25T21:44:21.344Z,88.17
2022-09-25T21:46:49.865Z,88.39
2022-09-25T21:49:20.727Z,88.16
2022-09-25T21:51:50.995Z,87.81
2022-09-25T21:54:20.724Z,87.49
2022-09-25T21:56:49.364Z,87.59
2022-09-25T21:59:17.965Z,87.94
2022-09-25T22:01:46.618Z,87.83
2022-09-25T22:04:16.053Z,88.35
2022-09-25T22:06:46.268Z,88.33
2022-09-25T22:09:17.340Z,88.71
2022-09-25T22:11:49.265Z,88.69
2022-09-25T22:14:17.687Z,88.79
2022-09-25T22:16:47.757Z,88.57
2022-09-25T22:19:18.378Z,88.65
2022-09-25T22:21:49.075Z,88.56
2022-09-25T22:24:17.896Z,88.51
2022-09-25T22:26:49.550Z,88.94
2022-09-25T22:29:19.900Z,88.85
2022-09-25T22:31:48.568Z,89.06
2022-09-25T22:34:19.844Z,88.68
2022-09-25T22:36:49.253Z,88.59
2022-09-25T22:39:20.002Z,88.43
2022-09-25T22:41:52.511Z,88.42
2022-09-25T22:44:21.611Z,88.65
2022-09-25T22:46:50.253Z,88.84
2022-09-25T22:49:18.981Z,88.56
2022-09-25T22:51:47.394Z,88.78
2022-09-25T22:54:15.855Z,88.68
2022-09-25T22:56:44.843Z,88.73
2022-09-25T22:59:18.037Z,88.61
2022-09-25T23:01:49.144Z,88.52
2022-09-25T23:04:20.083Z,88.74
2022-09-25T23:06:49.275Z,88.69
2022-09-25T23:09:19.312Z,88.85
2022-09-25T23:11:47.661Z,89.15
2022-09-25T23:14:19.810Z,89.22
2022-09-25T23:16:50.100Z,89.40
2022-09-25T23:19:19.161Z,89.24
2022-09-25T23:21:48.663Z,89.49
2022-09-25T23:24:19.499Z,89.21
2022-09-25T23:26:48.415Z,89.33
2022-09-25T23:29:20.565Z,89.33
2022-09-25T23:31:50.025Z,89.16
2022-09-25T23:34:18.747Z,89.28
2022-09-25T23:36:47.090Z,89.52
2022-09-25T23:39:17.517Z,89.27
2022-09-25T23:41:46.504Z,89.46
2022-09-25T23:44:14.870Z,89.32
2022-09-25T23:46:45.060Z,89.53
2022-09-25T23:49:13.633Z,89.41
2022-09-25T23:51:42.126Z,89.39
2022-09-25T23:54:11.031Z,89.34
2022-09-25T23:56:40.229Z,89.45
2022-09-25T23:59:10.425Z,89.35
